Time;durP1;ratioP1;P1;durP2;ratioP2;P2;SDS_P1;SDS_P2;PMS_P1;PMS_P2;Temp;Humidity;BMP_temperature;BMP_pressure;BME280_temperature;BME280_humidity;BME280_pressure;Samples;Min_cycle;Max_cycle;Signal;HPM_P1;HPM_P2
2023/10/23 00:00:52;;;;;;;13.63;8.90;;;;;;;9.55;100.00;101163.47;5010053;28;20036;-80
2023/10/23 00:03:17;;;;;;;10.68;8.18;;;;;;;9.53;100.00;101160.09;5003031;28;20026;-79
2023/10/23 00:05:43;;;;;;;10.52;8.43;;;;;;;9.53;100.00;101167.97;5011440;28;20030;-79
2023/10/23 00:08:08;;;;;;;11.88;8.80;;;;;;;9.52;100.00;101164.50;5011206;28;20030;-79
2023/10/23 00:10:36;;;;;;;11.23;8.57;;;;;;;9.48;100.00;101170.06;4992471;28;22018;-80
2023/10/23 00:13:02;;;;;;;11.95;8.40;;;;;;;9.53;100.00;101167.97;5009910;28;20029;-80
2023/10/23 00:15:27;;;;;;;9.98;8.65;;;;;;;9.45;100.00;101178.16;5011722;28;20032;-80
2023/10/23 00:17:52;;;;;;;12.18;8.75;;;;;;;9.43;100.00;101176.47;5009180;28;20037;-80
2023/10/23 00:20:18;;;;;;;16.30;9.52;;;;;;;9.43;100.00;101170.38;4992575;28;20387;-80
2023/10/23 00:22:43;;;;;;;11.40;7.97;;;;;;;9.40;100.00;101170.56;5010634;28;20087;-79
2023/10/23 00:25:09;;;;;;;12.93;8.23;;;;;;;9.39;100.00;101180.22;4993020;28;20034;-80
2023/10/23 00:27:37;;;;;;;9.75;8.40;;;;;;;9.35;100.00;101177.91;4993277;28;20180;-79
2023/10/23 00:30:03;;;;;;;10.88;7.72;;;;;;;9.28;100.00;101176.59;5010507;28;20029;-80
2023/10/23 00:32:28;;;;;;;7.93;7.13;;;;;;;9.23;100.00;101173.44;5007894;28;20025;-78
2023/10/23 00:34:53;;;;;;;11.70;8.20;;;;;;;9.18;100.00;101178.94;5008472;28;20321;-78
2023/10/23 00:37:19;;;;;;;10.30;7.82;;;;;;;9.18;100.00;101184.19;5008864;28;20498;-78
2023/10/23 00:39:44;;;;;;;9.48;7.43;;;;;;;9.20;100.00;101189.34;5010513;28;20037;-79
2023/10/23 00:42:09;;;;;;;11.80;7.80;;;;;;;9.23;100.00;101187.41;5010250;28;20033;-79
2023/10/23 00:44:35;;;;;;;10.13;7.80;;;;;;;9.12;100.00;101189.81;5008947;28;20022;-79
2023/10/23 00:47:01;;;;;;;12.20;7.65;;;;;;;9.11;100.00;101194.25;4992927;28;20177;-79
2023/10/23 00:49:27;;;;;;;11.15;8.02;;;;;;;9.19;100.00;101195.53;5008842;28;20040;-79
2023/10/23 00:51:52;;;;;;;12.98;8.38;;;;;;;9.20;100.00;101200.69;5007249;28;20034;-79
2023/10/23 00:54:19;;;;;;;10.65;8.40;;;;;;;9.15;100.00;101197.50;5004542;28;20418;-80
2023/10/23 00:56:45;;;;;;;12.98;8.25;;;;;;;9.16;100.00;101201.81;4997783;28;20480;-80
2023/10/23 00:59:11;;;;;;;9.35;7.40;;;;;;;9.15;100.00;101191.41;5008539;28;20029;-80
2023/10/23 01:01:38;;;;;;;14.23;8.02;;;;;;;9.16;100.00;101196.56;5008435;28;20040;-80
2023/10/23 01:04:05;;;;;;;14.27;8.10;;;;;;;9.15;100.00;101204.53;5008073;28;20033;-80
2023/10/23 01:06:31;;;;;;;9.55;7.35;;;;;;;9.05;100.00;101201.66;5009325;28;20037;-80
2023/10/23 01:08:57;;;;;;;9.13;7.40;;;;;;;9.07;100.00;101210.28;5008820;28;20049;-79
2023/10/23 01:11:23;;;;;;;10.57;7.50;;;;;;;8.99;100.00;101202.88;4998148;28;20030;-79
2023/10/23 01:13:48;;;;;;;11.73;8.05;;;;;;;9.02;100.00;101213.19;5010242;28;20033;-80
2023/10/23 01:16:13;;;;;;;11.32;7.35;;;;;;;9.00;100.00;101219.47;5008711;28;20128;-80
2023/10/23 01:18:39;;;;;;;12.52;7.65;;;;;;;8.95;100.00;101214.50;5007995;28;20159;-82
2023/10/23 01:21:04;;;;;;;11.93;8.23;;;;;;;8.99;100.00;101215.16;5009812;28;20030;-82
2023/10/23 01:23:35;;;;;;;11.90;7.88;;;;;;;8.99;100.00;101212.53;5009726;28;20042;-80
2023/10/23 01:26:00;;;;;;;10.50;7.85;;;;;;;8.91;100.00;101220.88;4992176;28;20120;-80
2023/10/23 01:28:26;;;;;;;13.98;8.15;;;;;;;8.99;100.00;101215.16;5007689;28;20108;-80
2023/10/23 01:30:51;;;;;;;13.35;7.93;;;;;;;8.98;100.00;101209.06;4999246;28;20022;-82
2023/10/23 01:33:16;;;;;;;9.27;7.20;;;;;;;8.95;100.00;101213.66;5004113;28;20040;-82
2023/10/23 01:35:42;;;;;;;11.48;8.15;;;;;;;8.90;100.00;101210.47;5007337;28;20376;-81
2023/10/23 01:38:07;;;;;;;11.32;8.13;;;;;;;8.91;100.00;101204.28;5009937;28;20045;-82
2023/10/23 01:40:32;;;;;;;13.85;7.95;;;;;;;8.88;100.00;101205.31;5009803;28;20387;-82
2023/10/23 01:42:58;;;;;;;14.93;7.88;;;;;;;8.80;100.00;101207.53;5007588;28;20116;-81
2023/10/23 01:45:23;;;;;;;11.18;7.70;;;;;;;8.74;100.00;101203.53;5010562;28;20030;-82
2023/10/23 01:47:48;;;;;;;11.18;7.30;;;;;;;8.70;100.00;101204.66;4989999;28;20030;-81
2023/10/23 01:50:14;;;;;;;11.25;7.47;;;;;;;8.70;100.00;101212.50;5007773;28;20037;-82
2023/10/23 01:52:41;;;;;;;11.25;7.85;;;;;;;8.67;100.00;101210.06;5007243;28;20034;-82
2023/10/23 01:55:07;;;;;;;9.55;7.00;;;;;;;8.61;100.00;101202.59;5006490;28;20124;-81
2023/10/23 01:57:32;;;;;;;10.70;7.10;;;;;;;8.53;100.00;101199.59;5008716;28;20026;-82
2023/10/23 02:00:04;;;;;;;8.10;6.90;;;;;;;8.51;100.00;101206.69;5008853;28;20033;-82
2023/10/23 02:02:29;;;;;;;11.05;7.53;;;;;;;8.48;100.00;101199.00;4998579;28;20040;-82
2023/10/23 02:04:55;;;;;;;7.82;7.03;;;;;;;8.45;100.00;101201.81;5004094;28;20559;-82
2023/10/23 02:07:20;;;;;;;8.50;7.13;;;;;;;8.43;100.00;101203.69;4972598;28;20112;-81
2023/10/23 02:09:46;;;;;;;9.85;7.28;;;;;;;8.43;100.00;101206.31;4979225;28;20029;-82
2023/10/23 02:12:11;;;;;;;10.18;7.22;;;;;;;8.47;100.00;101205.19;5009242;28;20668;-82
2023/10/23 02:14:36;;;;;;;10.73;7.47;;;;;;;8.45;100.00;101207.06;5009596;28;20430;-80
2023/10/23 02:17:02;;;;;;;10.13;7.53;;;;;;;8.42;100.00;101215.97;5009130;28;20052;-81
2023/10/23 02:19:29;;;;;;;11.52;7.88;;;;;;;8.41;100.00;101216.91;5007027;28;20076;-81
2023/10/23 02:21:54;;;;;;;10.35;7.50;;;;;;;8.37;100.00;101209.28;5007547;28;20037;-81
2023/10/23 02:24:20;;;;;;;9.63;7.00;;;;;;;8.35;100.00;101226.88;4990600;28;20046;-81
2023/10/23 02:26:46;;;;;;;8.63;7.22;;;;;;;8.29;100.00;101228.03;5008475;28;20060;-81
2023/10/23 02:29:12;;;;;;;12.48;7.80;;;;;;;8.27;100.00;101229.91;4991491;28;20030;-81
2023/10/23 02:31:38;;;;;;;9.07;7.50;;;;;;;8.29;100.00;101222.81;5008087;28;20084;-81
2023/10/23 02:34:04;;;;;;;10.73;7.38;;;;;;;8.32;100.00;101229.63;5009607;28;20054;-81
2023/10/23 02:36:29;;;;;;;10.73;7.90;;;;;;;8.26;100.00;101235.25;5009118;28;20032;-81
2023/10/23 02:38:54;;;;;;;11.23;7.78;;;;;;;8.28;100.00;101225.50;5009863;28;20470;-80
2023/10/23 02:41:20;;;;;;;11.63;7.32;;;;;;;8.26;100.00;101232.63;4995945;28;20488;-80
2023/10/23 02:43:46;;;;;;;9.00;7.60;;;;;;;8.26;100.00;101227.38;5012202;28;20041;-80
2023/10/23 02:46:11;;;;;;;12.57;7.97;;;;;;;8.28;100.00;101234.22;5013588;28;20029;-80
2023/10/23 02:48:38;;;;;;;10.05;7.68;;;;;;;8.23;100.00;101228.41;5000848;28;20112;-81
2023/10/23 02:51:04;;;;;;;10.98;7.72;;;;;;;8.16;100.00;101222.69;5012768;28;20033;-80
2023/10/23 02:53:29;;;;;;;10.43;6.95;;;;;;;8.14;100.00;101235.03;5013086;28;20018;-80
2023/10/23 02:55:55;;;;;;;10.50;6.95;;;;;;;8.08;100.00;101234.53;5009411;28;20056;-80
2023/10/23 02:58:21;;;;;;;7.97;6.78;;;;;;;8.04;100.00;101231.25;5006683;28;20032;-80
2023/10/23 03:00:46;;;;;;;10.93;7.28;;;;;;;7.99;100.00;101235.03;5009990;28;20024;-80
2023/10/23 03:03:12;;;;;;;9.25;6.70;;;;;;;7.94;100.00;101232.69;5012030;28;20029;-79
2023/10/23 03:05:37;;;;;;;8.70;6.45;;;;;;;7.94;100.00;101227.44;5010816;28;20056;-80
2023/10/23 03:08:03;;;;;;;10.15;6.45;;;;;;;7.87;100.00;101223.50;5011824;28;20287;-80
2023/10/23 03:10:29;;;;;;;7.72;6.65;;;;;;;7.86;100.00;101234.91;5012431;28;20018;-80
2023/10/23 03:12:54;;;;;;;7.63;6.38;;;;;;;7.81;100.00;101227.31;5009158;28;20069;-79
2023/10/23 03:15:20;;;;;;;10.23;6.53;;;;;;;7.78;100.00;101235.34;5001138;28;20022;-80
2023/10/23 03:17:45;;;;;;;8.75;6.85;;;;;;;7.72;100.00;101233.06;5011422;28;20535;-79
2023/10/23 03:20:11;;;;;;;9.27;6.50;;;;;;;7.69;100.00;101235.88;5011003;28;20399;-79
2023/10/23 03:22:37;;;;;;;7.97;6.40;;;;;;;7.73;100.00;101239.16;4997287;28;20086;-80
2023/10/23 03:25:03;;;;;;;10.07;6.28;;;;;;;7.63;100.00;101238.81;5012241;28;20053;-80
2023/10/23 03:27:30;;;;;;;8.13;6.50;;;;;;;7.64;100.00;101229.19;4994362;28;20045;-82
2023/10/23 03:29:55;;;;;;;9.10;7.03;;;;;;;7.61;100.00;101229.38;5011491;28;20100;-80
2023/10/23 03:32:20;;;;;;;12.05;6.75;;;;;;;7.58;100.00;101230.34;5006374;28;20022;-82
2023/10/23 03:34:46;;;;;;;9.77;7.25;;;;;;;7.57;100.00;101231.28;5011276;28;20045;-79
2023/10/23 03:37:11;;;;;;;12.77;7.05;;;;;;;7.56;100.00;101232.22;5012535;28;20670;-80
2023/10/23 03:39:36;;;;;;;11.98;7.32;;;;;;;7.50;100.00;101228.16;4994320;28;20030;-80
2023/10/23 03:42:02;;;;;;;10.38;6.78;;;;;;;7.48;100.00;101239.66;5010697;28;20041;-79
2023/10/23 03:44:27;;;;;;;11.27;7.40;;;;;;;7.46;100.00;101234.50;4990912;28;20029;-79
2023/10/23 03:46:53;;;;;;;9.48;7.30;;;;;;;7.45;100.00;101245.91;5004700;28;20034;-79
2023/10/23 03:49:19;;;;;;;11.77;7.88;;;;;;;7.44;100.00;101249.44;4993255;28;20065;-79
2023/10/23 03:51:45;;;;;;;11.32;7.40;;;;;;;7.44;100.00;101238.13;4995399;28;20046;-80
2023/10/23 03:54:11;;;;;;;10.38;7.20;;;;;;;7.40;100.00;101237.44;4990750;28;20484;-82
2023/10/23 03:56:36;;;;;;;13.25;7.15;;;;;;;7.37;100.00;101242.84;4991988;28;20023;-80
2023/10/23 03:59:02;;;;;;;11.95;7.10;;;;;;;7.36;100.00;101241.16;5008136;28;20439;-80
2023/10/23 04:01:28;;;;;;;10.68;6.88;;;;;;;7.30;100.00;101241.50;5024743;28;20032;-82
2023/10/23 04:03:53;;;;;;;12.60;7.55;;;;;;;7.28;100.00;101243.38;5001464;28;20532;-82
2023/10/23 04:06:18;;;;;;;11.38;6.90;;;;;;;7.25;100.00;101242.69;5011634;28;20030;-80
2023/10/23 04:08:44;;;;;;;13.73;6.78;;;;;;;7.20;100.00;101251.63;5009329;28;20109;-80
2023/10/23 04:11:13;;;;;;;9.73;7.18;;;;;;;7.16;100.00;101250.06;5011218;28;20030;-82
2023/10/23 04:13:38;;;;;;;11.48;6.68;;;;;;;7.13;100.00;101244.16;5009321;28;20083;-80
2023/10/23 04:16:03;;;;;;;10.30;7.03;;;;;;;7.13;100.00;101249.41;5008800;28;20030;-80
2023/10/23 04:18:29;;;;;;;10.30;6.93;;;;;;;7.09;100.00;101246.09;5010193;28;20483;-81
2023/10/23 04:21:05;;;;;;;8.88;6.75;;;;;;;7.07;100.00;101244.50;4998110;28;20182;-80
2023/10/23 04:23:31;;;;;;;10.48;6.53;;;;;;;7.02;100.00;101252.59;5009476;28;20045;-80
2023/10/23 04:25:57;;;;;;;8.02;7.10;;;;;;;6.99;100.00;101249.28;5009180;28;20045;-80
2023/10/23 04:28:23;;;;;;;10.63;6.47;;;;;;;7.00;100.00;101250.97;5009737;28;20030;-81
2023/10/23 04:30:48;;;;;;;7.55;6.10;;;;;;;6.96;100.00;101249.44;5009799;28;20033;-80
2023/10/23 04:33:16;;;;;;;7.72;6.68;;;;;;;6.93;100.00;101252.22;5010144;28;20484;-80
2023/10/23 04:35:42;;;;;;;7.53;6.38;;;;;;;6.88;100.00;101253.31;5011199;28;20025;-80
2023/10/23 04:38:08;;;;;;;11.15;6.72;;;;;;;6.90;100.00;101254.09;5016199;28;20033;-79
2023/10/23 04:40:33;;;;;;;9.52;6.43;;;;;;;6.86;100.00;101257.78;5010674;28;20033;-79
2023/10/23 04:42:58;;;;;;;8.27;5.90;;;;;;;6.85;100.00;101255.25;4994532;28;20114;-80
2023/10/23 04:45:24;;;;;;;7.68;6.15;;;;;;;6.85;100.00;101260.47;5007083;28;20033;-80
2023/10/23 04:47:49;;;;;;;8.68;6.05;;;;;;;6.81;100.00;101257.19;5000444;28;20037;-80
2023/10/23 04:50:16;;;;;;;9.55;6.13;;;;;;;6.80;100.00;101252.84;5008657;28;20105;-80
2023/10/23 04:52:41;;;;;;;8.07;5.65;;;;;;;6.76;100.00;101251.31;5009616;28;20049;-80
2023/10/23 04:55:07;;;;;;;8.15;5.97;;;;;;;6.75;100.00;101249.63;5012704;28;20490;-80
2023/10/23 04:57:32;;;;;;;11.40;6.22;;;;;;;6.69;100.00;101249.94;4991261;28;20026;-80
2023/10/23 04:59:58;;;;;;;6.75;5.78;;;;;;;6.69;100.00;101246.50;5007925;28;20668;-79
2023/10/23 05:02:24;;;;;;;7.80;5.95;;;;;;;6.67;100.00;101240.50;5008055;28;20902;-80
2023/10/23 05:04:49;;;;;;;7.60;5.65;;;;;;;6.64;100.00;101243.28;5009309;28;20022;-81
2023/10/23 05:07:15;;;;;;;9.68;6.15;;;;;;;6.61;100.00;101246.88;5011065;28;20022;-80
2023/10/23 05:09:41;;;;;;;10.23;5.97;;;;;;;6.58;100.00;101249.66;5008862;28;20021;-80
2023/10/23 05:12:07;;;;;;;9.88;5.70;;;;;;;6.54;100.00;101253.34;5008806;28;20018;-80
2023/10/23 05:14:33;;;;;;;7.45;5.85;;;;;;;6.48;100.00;101248.44;5010772;28;20627;-80
2023/10/23 05:16:58;;;;;;;7.82;5.63;;;;;;;6.51;100.00;101248.28;5009319;28;20395;-80
2023/10/23 05:19:23;;;;;;;9.50;5.82;;;;;;;6.48;100.00;101243.22;5008994;28;20026;-80
2023/10/23 05:21:49;;;;;;;9.70;5.60;;;;;;;6.46;100.00;101242.44;4990817;28;20087;-80
2023/10/23 05:24:14;;;;;;;6.50;5.82;;;;;;;6.44;100.00;101245.13;5008187;28;20050;-80
2023/10/23 05:26:40;;;;;;;7.13;5.28;;;;;;;6.43;100.00;101240.00;5006505;28;20488;-79
2023/10/23 05:29:05;;;;;;;8.43;5.47;;;;;;;6.38;100.00;101241.97;5009306;28;20117;-80
2023/10/23 05:31:30;;;;;;;6.53;5.40;;;;;;;6.35;100.00;101239.50;5009201;28;20033;-80
2023/10/23 05:33:55;;;;;;;8.30;5.80;;;;;;;6.33;100.00;101241.34;4990838;28;20041;-80
2023/10/23 05:36:21;;;;;;;10.80;5.95;;;;;;;6.32;100.00;101247.50;4995676;28;20073;-80
2023/10/23 05:38:46;;;;;;;7.88;5.80;;;;;;;6.29;100.00;101244.13;5003995;28;20099;-80
2023/10/23 05:41:11;;;;;;;11.85;5.55;;;;;;;6.28;100.00;101242.44;5011526;28;20034;-80
2023/10/23 05:43:37;;;;;;;10.50;5.30;;;;;;;6.26;100.00;101246.88;5009463;28;20184;-80
2023/10/23 05:46:03;;;;;;;8.48;5.20;;;;;;;6.24;100.00;101243.50;5007168;28;20033;-80
2023/10/23 05:48:29;;;;;;;9.07;5.22;;;;;;;6.24;100.00;101245.28;5008405;28;20026;-80
2023/10/23 05:51:01;;;;;;;7.47;5.90;;;;;;;6.26;100.00;101246.03;5009814;28;20022;-80
2023/10/23 05:53:27;;;;;;;12.43;5.47;;;;;;;6.19;100.00;101250.72;4991533;28;20033;-80
2023/10/23 05:55:53;;;;;;;6.35;5.05;;;;;;;6.17;100.00;101247.34;4990941;28;20029;-80
2023/10/23 05:58:19;;;;;;;8.73;5.63;;;;;;;6.12;100.00;101251.09;5006793;28;20080;-79
2023/10/23 06:00:44;;;;;;;11.98;5.70;;;;;;;6.14;100.00;101251.88;4993881;28;20026;-80
2023/10/23 06:03:10;;;;;;;8.15;5.13;;;;;;;6.14;100.00;101247.50;5008377;28;20095;-80
2023/10/23 06:05:42;;;;;;;9.65;5.47;;;;;;;6.12;100.00;101245.88;5008709;28;20034;-80
2023/10/23 06:08:08;;;;;;;9.48;5.63;;;;;;;6.07;100.00;101245.25;5004758;28;20058;-81
2023/10/23 06:10:44;;;;;;;10.82;6.88;;;;;;;6.08;100.00;101250.41;4982702;28;20056;-80
2023/10/23 06:13:11;;;;;;;10.77;6.25;;;;;;;6.04;100.00;101241.03;4998024;28;20104;-79
2023/10/23 06:15:37;;;;;;;10.27;6.25;;;;;;;6.02;100.00;101242.03;4991871;28;20033;-79
2023/10/23 06:18:02;;;;;;;9.52;6.00;;;;;;;6.01;100.00;101243.81;5009477;28;20026;-79
2023/10/23 06:20:32;;;;;;;10.77;5.75;;;;;;;6.03;100.00;101249.81;5001843;28;20112;-79
2023/10/23 06:23:00;;;;;;;9.88;5.65;;;;;;;6.03;100.00;101241.97;4995452;28;20449;-80
2023/10/23 06:25:26;;;;;;;12.23;7.00;;;;;;;5.99;100.00;101243.00;4998157;28;20479;-79
2023/10/23 06:27:52;;;;;;;10.35;6.47;;;;;;;6.04;100.00;101245.41;4997059;28;20109;-79
2023/10/23 06:30:17;;;;;;;13.88;6.85;;;;;;;6.06;100.00;101249.66;4993248;28;20128;-79
2023/10/23 06:32:43;;;;;;;14.30;7.18;;;;;;;6.03;100.00;101244.56;5007000;28;20598;-79
2023/10/23 06:35:08;;;;;;;13.77;8.02;;;;;;;6.07;100.00;101247.88;4994595;28;20530;-79
2023/10/23 06:37:33;;;;;;;8.35;7.00;;;;;;;6.09;100.00;101246.88;4992983;28;20033;-79
2023/10/23 06:39:59;;;;;;;10.23;6.82;;;;;;;6.08;100.00;101246.97;5009809;28;20025;-78
2023/10/23 06:42:27;;;;;;;13.07;7.10;;;;;;;6.06;100.00;101254.88;5010992;28;20064;-79
2023/10/23 06:44:53;;;;;;;14.35;6.80;;;;;;;6.09;100.00;101248.66;5010457;28;20033;-79
2023/10/23 06:47:18;;;;;;;12.57;7.35;;;;;;;6.12;100.00;101246.72;5000402;28;20492;-79
2023/10/23 06:49:44;;;;;;;12.77;6.90;;;;;;;6.15;100.00;101251.81;5011012;28;20064;-80
2023/10/23 06:52:10;;;;;;;12.38;7.85;;;;;;;6.18;100.00;101248.19;5014447;28;20396;-79
2023/10/23 06:54:35;;;;;;;9.52;7.45;;;;;;;6.18;100.00;101248.19;5012328;28;20026;-80
2023/10/23 06:57:06;;;;;;;15.35;8.27;;;;;;;6.29;100.00;101245.88;5011984;28;20157;-80
2023/10/23 06:59:31;;;;;;;14.27;8.68;;;;;;;6.35;100.00;101236.88;5011956;28;20388;-80
2023/10/23 07:01:56;;;;;;;13.70;8.13;;;;;;;6.40;100.00;101240.97;5012424;28;20022;-80
2023/10/23 07:04:22;;;;;;;14.82;7.88;;;;;;;6.42;100.00;101236.53;5012281;28;20060;-80
2023/10/23 07:06:47;;;;;;;11.50;7.55;;;;;;;6.43;100.00;101242.59;5012373;28;20032;-80
2023/10/23 07:09:12;;;;;;;12.43;7.57;;;;;;;6.49;100.00;101242.28;5014264;28;20024;-78
2023/10/23 07:11:37;;;;;;;12.77;8.27;;;;;;;6.56;100.00;101246.28;5013006;28;20493;-76
2023/10/23 07:14:03;;;;;;;14.10;8.30;;;;;;;6.67;100.00;101241.34;5012112;28;20037;-79
2023/10/23 07:16:28;;;;;;;13.30;9.20;;;;;;;6.79;100.00;101240.69;5014698;28;20053;-79
2023/10/23 07:18:53;;;;;;;18.02;9.50;;;;;;;6.89;100.00;101234.09;5010080;28;20954;-79
2023/10/23 07:21:21;;;;;;;20.00;10.10;;;;;;;6.93;100.00;101233.91;5012139;28;20029;-79
2023/10/23 07:23:47;;;;;;;19.17;10.43;;;;;;;7.02;100.00;101234.28;5010602;28;20057;-79
2023/10/23 07:26:14;;;;;;;20.00;10.63;;;;;;;7.08;100.00;101236.56;5010856;28;20030;-79
2023/10/23 07:28:40;;;;;;;21.48;10.32;;;;;;;7.18;100.00;101237.75;5011310;28;20033;-78
2023/10/23 07:31:09;;;;;;;18.42;10.05;;;;;;;7.23;100.00;101245.38;5012047;28;20041;-79
2023/10/23 07:33:38;;;;;;;14.82;10.35;;;;;;;7.27;100.00;101246.91;5007397;28;20040;-78
2023/10/23 07:36:04;;;;;;;18.40;11.05;;;;;;;7.40;100.00;101242.69;5011573;28;21033;-79
2023/10/23 07:38:30;;;;;;;17.35;11.30;;;;;;;7.48;100.00;101245.72;4998220;28;20025;-79
2023/10/23 07:40:55;;;;;;;17.42;11.20;;;;;;;7.57;100.00;101246.16;5007693;28;20056;-79
2023/10/23 07:43:21;;;;;;;16.67;11.68;;;;;;;7.64;100.00;101244.91;4986978;28;20021;-79
2023/10/23 07:45:46;;;;;;;17.45;11.18;;;;;;;7.72;100.00;101251.41;5010213;28;20515;-79
2023/10/23 07:48:11;;;;;;;17.95;11.27;;;;;;;7.81;100.00;101247.41;4992938;28;20068;-79
2023/10/23 07:50:37;;;;;;;17.02;11.20;;;;;;;7.86;100.00;101255.88;5010488;28;20028;-79
2023/10/23 07:53:02;;;;;;;17.15;11.65;;;;;;;7.93;100.00;101257.19;4997797;28;20030;-79
2023/10/23 07:55:27;;;;;;;18.95;11.73;;;;;;;7.99;100.00;101256.00;5008975;28;20026;-79
2023/10/23 07:57:53;;;;;;;18.00;10.95;;;;;;;8.06;100.00;101250.34;4996717;28;20026;-80
2023/10/23 08:00:19;;;;;;;17.73;10.90;;;;;;;8.14;100.00;101253.38;5011279;28;20033;-79
2023/10/23 08:02:44;;;;;;;18.02;11.27;;;;;;;8.20;100.00;101248.72;5009683;28;20033;-79
2023/10/23 08:05:09;;;;;;;18.25;11.02;;;;;;;8.28;100.00;101242.09;4991941;28;20547;-80
2023/10/23 08:07:35;;;;;;;18.65;11.32;;;;;;;8.38;100.00;101234.56;4993199;28;20434;-79
2023/10/23 08:10:01;;;;;;;18.77;11.45;;;;;;;8.47;100.00;101241.91;5019279;28;20033;-80
2023/10/23 08:12:26;;;;;;;20.30;11.05;;;;;;;8.56;100.00;101233.50;5010003;28;20030;-80
2023/10/23 08:14:51;;;;;;;16.30;10.85;;;;;;;8.67;100.00;101236.31;5009013;28;20033;-80
2023/10/23 08:17:16;;;;;;;20.60;11.85;;;;;;;8.74;100.00;101228.91;5009932;28;20061;-80
2023/10/23 08:19:42;;;;;;;17.08;11.07;;;;;;;8.82;100.00;101229.31;5009387;28;20030;-80
2023/10/23 08:22:07;;;;;;;22.60;11.50;;;;;;;8.90;100.00;101226.22;4991961;28;20030;-79
2023/10/23 08:24:32;;;;;;;18.23;10.90;;;;;;;8.99;100.00;101234.38;5009120;28;20128;-80
2023/10/23 08:26:58;;;;;;;16.77;10.88;;;;;;;9.06;100.00;101240.09;4992564;28;20037;-80
2023/10/23 08:29:23;;;;;;;22.00;11.77;;;;;;;9.11;100.00;101230.97;5012381;28;20033;-80
2023/10/23 08:31:49;;;;;;;22.48;10.95;;;;;;;9.21;100.00;101247.03;5009954;28;20030;-79
2023/10/23 08:34:14;;;;;;;17.60;10.05;;;;;;;9.32;100.00;101241.09;5009979;28;20025;-80
2023/10/23 08:36:39;;;;;;;21.33;10.23;;;;;;;9.38;100.00;101238.94;5007792;28;20033;-79
2023/10/23 08:39:05;;;;;;;15.98;9.52;;;;;;;9.51;100.00;101238.16;4994757;28;20021;-79
2023/10/23 08:41:31;;;;;;;15.57;9.45;;;;;;;9.56;100.00;101238.72;5009857;28;20026;-79
2023/10/23 08:43:56;;;;;;;21.00;9.80;;;;;;;9.69;100.00;101245.72;5007870;28;20042;-79
2023/10/23 08:46:27;;;;;;;17.05;9.15;;;;;;;9.81;100.00;101246.72;5008277;28;20377;-79
2023/10/23 08:48:54;;;;;;;14.95;8.27;;;;;;;9.87;100.00;101241.06;5007992;28;20041;-79
2023/10/23 08:51:19;;;;;;;21.30;9.35;;;;;;;10.06;100.00;101238.09;5009440;28;20480;-79
2023/10/23 08:53:50;;;;;;;14.23;8.07;;;;;;;10.15;100.00;101234.88;5009563;28;20044;-79
2023/10/23 08:56:16;;;;;;;16.08;7.80;;;;;;;10.22;100.00;101227.44;4999158;28;20117;-79
2023/10/23 08:58:46;;;;;;;13.70;7.07;;;;;;;10.30;100.00;101227.75;5008266;28;20551;-79
2023/10/23 09:01:11;;;;;;;13.48;6.68;;;;;;;10.39;100.00;101223.66;4995018;28;20040;-79
2023/10/23 09:03:37;;;;;;;13.85;6.75;;;;;;;10.47;100.00;101234.53;5008875;28;20029;-80
2023/10/23 09:06:02;;;;;;;14.48;6.70;;;;;;;10.58;100.00;101226.75;5010829;28;20084;-79
2023/10/23 09:08:30;;;;;;;15.25;6.80;;;;;;;10.69;100.00;101221.59;5010394;28;20029;-80
2023/10/23 09:11:03;;;;;;;17.30;6.38;;;;;;;10.78;100.00;101225.38;5008364;28;21355;-80
2023/10/23 09:13:38;;;;;;;;;;;;;;;10.92;100.00;101220.03;5009540;28;20036;-79
2023/10/23 09:16:08;;;;;;;13.18;6.50;;;;;;;11.02;100.00;101215.81;4991686;28;19955;-79
2023/10/23 09:18:51;;;;;;;11.98;6.72;;;;;;;11.11;100.00;101215.16;5008852;28;20092;-79
2023/10/23 09:21:17;;;;;;;15.70;6.30;;;;;;;11.16;100.00;101201.66;5009689;28;20432;-79
2023/10/23 09:23:53;;;;;;;15.13;5.95;;;;;;;11.23;100.00;101201.13;5009727;28;20085;-79
2023/10/23 09:26:22;;;;;;;12.98;6.90;;;;;;;11.28;100.00;101201.66;5001773;28;20033;-80
2023/10/23 09:28:49;;;;;;;13.30;6.93;;;;;;;11.39;100.00;101203.50;4991826;28;20017;-79
2023/10/23 09:31:16;;;;;;;19.25;6.93;;;;;;;11.48;100.00;101197.56;5010011;28;20029;-79
2023/10/23 09:33:44;;;;;;;14.05;5.95;;;;;;;11.53;100.00;101202.50;5008233;28;20030;-79
2023/10/23 09:36:09;;;;;;;16.85;6.78;;;;;;;11.54;100.00;101189.22;5008356;28;20091;-79
2023/10/23 09:38:36;;;;;;;12.38;5.78;;;;;;;11.60;100.00;101190.56;5009537;28;20030;-79
2023/10/23 09:41:02;;;;;;;10.88;5.75;;;;;;;11.67;100.00;101189.19;5008431;28;20113;-79
2023/10/23 09:43:27;;;;;;;14.82;5.88;;;;;;;11.70;100.00;101183.69;4991676;28;20117;-79
2023/10/23 09:45:53;;;;;;;14.05;6.10;;;;;;;11.78;100.00;101185.78;5006679;28;20029;-79
2023/10/23 09:48:23;;;;;;;12.50;6.03;;;;;;;11.76;100.00;101180.59;4991622;28;20038;-78
2023/10/23 09:50:49;;;;;;;13.77;6.15;;;;;;;11.84;100.00;101190.63;5009374;28;20053;-79
2023/10/23 09:53:16;;;;;;;11.63;5.22;;;;;;;11.81;100.00;101189.03;5008675;28;20562;-79
2023/10/23 09:55:46;;;;;;;11.82;5.30;;;;;;;11.87;100.00;101193.03;5009376;28;20040;-78
2023/10/23 09:58:17;;;;;;;12.75;5.65;;;;;;;11.94;100.00;101186.34;5009138;28;20053;-79
2023/10/23 10:00:48;;;;;;;11.68;5.13;;;;;;;11.98;100.00;101192.22;4992261;28;20026;-78
2023/10/23 10:03:18;;;;;;;12.48;4.90;;;;;;;12.06;100.00;101192.50;5008645;28;20106;-81
2023/10/23 10:05:49;;;;;;;13.38;4.93;;;;;;;12.01;100.00;101189.34;5007081;28;20045;-80
2023/10/23 10:08:17;;;;;;;12.80;5.00;;;;;;;12.07;100.00;101186.28;4990892;28;20029;-80
2023/10/23 10:10:43;;;;;;;13.93;4.80;;;;;;;12.09;100.00;101190.47;5009820;28;20022;-81
2023/10/23 10:13:11;;;;;;;13.55;4.88;;;;;;;12.10;100.00;101186.03;5010937;28;20029;-80
2023/10/23 10:15:38;;;;;;;13.60;4.80;;;;;;;12.02;100.00;101181.34;4990411;28;20041;-80
2023/10/23 10:18:03;;;;;;;13.35;5.80;;;;;;;12.09;100.00;101176.47;5008746;28;20065;-80
2023/10/23 10:20:29;;;;;;;13.90;4.85;;;;;;;12.07;100.00;101171.28;5008002;28;20057;-80
2023/10/23 10:23:04;;;;;;;18.02;5.78;;;;;;;12.18;100.00;101175.75;5007791;28;20096;-79
2023/10/23 10:25:32;;;;;;;11.48;4.78;;;;;;;12.23;100.00;101171.81;5008514;28;20396;-79
2023/10/23 10:27:58;;;;;;;11.95;5.00;;;;;;;12.21;100.00;101168.44;4990042;28;20038;-80
2023/10/23 10:30:41;;;;;;;13.02;4.75;;;;;;;12.31;100.00;101165.94;4990896;28;20034;-79
2023/10/23 10:33:08;;;;;;;14.18;4.68;;;;;;;12.33;100.00;101161.38;5006720;28;20036;-80
2023/10/23 10:35:37;;;;;;;14.75;4.78;;;;;;;12.35;100.00;101164.75;5007956;28;20480;-78
2023/10/23 10:38:03;;;;;;;14.18;5.43;;;;;;;12.39;100.00;101160.06;5009403;28;20054;-79
2023/10/23 10:41:01;;;;;;;15.30;5.32;;;;;;;12.45;100.00;101155.19;5013289;28;20562;-79
2023/10/23 10:43:39;;;;;;;13.80;5.28;;;;;;;12.52;100.00;101151.13;5005541;28;20042;-77
2023/10/23 10:46:15;;;;;;;13.45;5.22;;;;;;;12.58;100.00;101156.88;4996328;28;20117;-78
2023/10/23 10:48:46;;;;;;;12.35;4.82;;;;;;;12.64;100.00;101148.47;4981545;28;20396;-78
2023/10/23 10:51:17;;;;;;;17.98;5.40;;;;;;;12.70;100.00;101146.19;4990694;28;20029;-78
2023/10/23 10:53:42;;;;;;;14.00;5.78;;;;;;;12.75;100.00;101132.63;4993018;28;20034;-77
2023/10/23 10:56:09;;;;;;;12.43;5.50;;;;;;;12.81;100.00;101132.19;4991460;28;20049;-78
2023/10/23 10:58:38;;;;;;;17.77;6.22;;;;;;;12.85;100.00;101126.53;5009637;28;20071;-79
2023/10/23 11:01:04;;;;;;;14.27;5.70;;;;;;;12.88;100.00;101114.06;4995261;28;20068;-78
2023/10/23 11:03:30;;;;;;;12.27;5.63;;;;;;;12.91;100.00;101106.72;5011549;28;20076;-78
2023/10/23 11:05:55;;;;;;;15.35;5.63;;;;;;;12.90;100.00;101098.91;5012343;28;20038;-78
2023/10/23 11:08:21;;;;;;;15.27;5.60;;;;;;;12.89;100.00;101098.09;5012502;28;20034;-78
2023/10/23 11:10:46;;;;;;;15.63;6.05;;;;;;;13.01;100.00;101094.44;5011265;28;20038;-78
2023/10/23 11:13:15;;;;;;;14.05;5.65;;;;;;;13.02;100.00;101085.56;4991834;28;20033;-79